createdAt,value
2018-09-27T00:00:47.013Z,8.11
2018-09-27T00:01:47.102Z,8.15
2018-09-27T00:02:47.191Z,8.17
2018-09-27T00:03:47.279Z,8.14
2018-09-27T00:04:47.373Z,8.14
2018-09-27T00:05:47.470Z,8.18
2018-09-27T00:06:47.561Z,8.22
2018-09-27T00:07:47.653Z,8.15
2018-09-27T00:08:47.741Z,8.12
2018-09-27T00:09:47.830Z,8.14
2018-09-27T00:10:47.921Z,8.03
2018-09-27T00:11:48.011Z,7.94
2018-09-27T00:12:48.102Z,7.97
2018-09-27T00:13:48.218Z,8.07
2018-09-27T00:14:48.280Z,8.11
2018-09-27T00:15:48.375Z,8.11
2018-09-27T00:16:48.466Z,8.02
2018-09-27T00:17:48.556Z,8.04
2018-09-27T00:18:48.651Z,8.03
2018-09-27T00:19:48.739Z,8.03
2018-09-27T00:20:48.831Z,8.08
2018-09-27T00:21:48.921Z,7.99
2018-09-27T00:22:49.011Z,8.00
2018-09-27T00:23:49.102Z,8.00
2018-09-27T00:24:49.201Z,7.99
2018-09-27T00:25:49.292Z,7.99
2018-09-27T00:26:49.381Z,7.94
2018-09-27T00:27:49.471Z,7.94
2018-09-27T00:28:49.558Z,8.02
2018-09-27T00:29:49.648Z,7.93
2018-09-27T00:30:49.741Z,7.97
2018-09-27T00:31:49.827Z,7.87
2018-09-27T00:32:49.918Z,7.89
2018-09-27T00:33:50.008Z,7.90
2018-09-27T00:34:50.098Z,7.92
2018-09-27T00:35:50.187Z,7.81
2018-09-27T00:36:50.276Z,7.84
2018-09-27T00:37:50.365Z,7.89
2018-09-27T00:38:50.461Z,7.94
2018-09-27T00:39:50.551Z,7.92
2018-09-27T00:40:50.639Z,7.90
2018-09-27T00:41:50.733Z,7.85
2018-09-27T00:42:50.820Z,7.89
2018-09-27T00:43:50.910Z,7.89
2018-09-27T00:44:50.999Z,7.97
2018-09-27T00:45:51.087Z,7.90
2018-09-27T00:46:51.177Z,7.85
2018-09-27T00:47:51.267Z,7.97
2018-09-27T00:48:51.357Z,7.93
2018-09-27T00:49:51.446Z,7.92
2018-09-27T00:50:51.535Z,7.85
2018-09-27T00:51:51.625Z,7.87
2018-09-27T00:52:51.715Z,7.90
2018-09-27T00:53:51.802Z,7.79
2018-09-27T00:54:51.893Z,7.81
2018-09-27T00:55:51.986Z,7.84
2018-09-27T00:56:52.072Z,7.85
2018-09-27T00:57:52.156Z,7.87
2018-09-27T00:58:52.248Z,7.84
2018-09-27T00:59:52.338Z,7.89
2018-09-27T01:00:52.429Z,7.84
2018-09-27T01:01:52.522Z,7.78
2018-09-27T01:02:52.603Z,7.81
2018-09-27T01:03:52.696Z,7.79
2018-09-27T01:04:52.788Z,7.81
2018-09-27T01:05:52.876Z,7.81
2018-09-27T01:06:52.963Z,7.72
2018-09-27T01:07:53.053Z,7.79
2018-09-27T01:08:53.143Z,7.72
2018-09-27T01:09:53.228Z,7.78
2018-09-27T01:10:53.325Z,7.77
2018-09-27T01:11:53.418Z,7.72
2018-09-27T01:12:53.501Z,7.71
2018-09-27T01:13:53.592Z,7.66
2018-09-27T01:14:53.683Z,7.63
2018-09-27T01:15:53.774Z,7.66
2018-09-27T01:16:53.863Z,7.69
2018-09-27T01:17:53.952Z,7.69
2018-09-27T01:18:54.045Z,7.72
2018-09-27T01:19:54.132Z,7.60
2018-09-27T01:20:54.221Z,7.60
2018-09-27T01:21:54.312Z,7.74
2018-09-27T01:22:54.400Z,7.75
2018-09-27T01:23:54.488Z,7.72
2018-09-27T01:24:54.581Z,7.67
2018-09-27T01:25:54.665Z,7.67
2018-09-27T01:26:54.757Z,7.67
2018-09-27T01:27:54.843Z,7.74
2018-09-27T01:28:54.932Z,7.75
2018-09-27T01:29:55.024Z,7.77
2018-09-27T01:30:55.114Z,7.72
2018-09-27T01:31:55.207Z,7.74
2018-09-27T01:32:55.297Z,7.72
2018-09-27T01:33:55.385Z,7.74
2018-09-27T01:34:55.477Z,7.71
2018-09-27T01:35:55.564Z,7.74
2018-09-27T01:36:55.652Z,7.62
2018-09-27T01:37:55.740Z,7.69
2018-09-27T01:38:55.832Z,7.77
2018-09-27T01:39:55.931Z,7.74
2018-09-27T01:40:56.022Z,7.71
2018-09-27T01:41:56.114Z,7.74
2018-09-27T01:42:56.198Z,7.66
2018-09-27T01:43:56.292Z,7.71
2018-09-27T01:44:56.387Z,7.66
2018-09-27T01:45:56.474Z,7.72
2018-09-27T01:46:56.567Z,7.66
2018-09-27T01:47:56.653Z,7.66
2018-09-27T01:48:56.744Z,7.72
2018-09-27T01:49:56.830Z,7.62
2018-09-27T01:50:56.920Z,7.66
2018-09-27T01:51:57.010Z,7.62
2018-09-27T01:52:57.091Z,7.66
2018-09-27T01:53:57.192Z,7.53
2018-09-27T01:54:57.281Z,7.58
2018-09-27T01:55:57.366Z,7.52
2018-09-27T01:56:57.455Z,7.45
2018-09-27T01:57:57.546Z,7.49
2018-09-27T01:58:57.635Z,7.50
2018-09-27T01:59:57.727Z,7.44
2018-09-27T02:00:57.820Z,7.41
2018-09-27T02:01:57.908Z,7.60
2018-09-27T02:02:57.996Z,7.55
2018-09-27T02:03:58.086Z,7.42
2018-09-27T02:04:58.177Z,7.52
2018-09-27T02:05:58.265Z,7.62
2018-09-27T02:06:58.356Z,7.55
2018-09-27T02:07:58.448Z,7.50
2018-09-27T02:08:58.539Z,7.52
2018-09-27T02:09:58.630Z,7.37
2018-09-27T02:10:58.715Z,7.47
2018-09-27T02:11:58.805Z,7.49
2018-09-27T02:12:58.890Z,7.38
2018-09-27T02:13:58.983Z,7.50
2018-09-27T02:14:59.070Z,7.47
2018-09-27T02:15:59.162Z,7.47
2018-09-27T02:16:59.253Z,7.56
2018-09-27T02:17:59.344Z,7.53
2018-09-27T02:18:59.433Z,7.44
2018-09-27T02:19:59.523Z,7.40
2018-09-27T02:20:59.611Z,7.44
2018-09-27T02:21:59.704Z,7.49
2018-09-27T02:22:59.791Z,7.50
2018-09-27T02:23:59.881Z,7.37
2018-09-27T02:24:59.974Z,7.45
2018-09-27T02:26:00.061Z,7.47
2018-09-27T02:27:00.151Z,7.47
2018-09-27T02:28:00.244Z,7.45
2018-09-27T02:29:00.334Z,7.40
2018-09-27T02:30:00.423Z,7.40
2018-09-27T02:31:00.513Z,7.29
2018-09-27T02:32:00.605Z,7.41
2018-09-27T02:33:00.689Z,7.45
2018-09-27T02:34:00.783Z,7.34
2018-09-27T02:35:00.873Z,7.35
2018-09-27T02:36:00.964Z,7.35
2018-09-27T02:37:01.058Z,7.35
2018-09-27T02:38:01.138Z,7.35
2018-09-27T02:39:01.227Z,7.31
2018-09-27T02:40:01.317Z,7.34
2018-09-27T02:41:01.409Z,7.37
2018-09-27T02:42:01.500Z,7.32
2018-09-27T02:43:01.585Z,7.34
2018-09-27T02:44:01.676Z,7.34
2018-09-27T02:45:01.767Z,7.37
2018-09-27T02:46:01.856Z,7.44
2018-09-27T02:47:01.942Z,7.32
2018-09-27T02:48:02.034Z,7.34
2018-09-27T02:49:02.149Z,7.34
2018-09-27T02:50:02.236Z,7.26
2018-09-27T02:51:02.324Z,7.22
2018-09-27T02:52:02.416Z,7.26
2018-09-27T02:53:02.503Z,7.31
2018-09-27T02:54:02.593Z,7.35
2018-09-27T02:55:02.683Z,7.37
2018-09-27T02:56:02.775Z,7.35
2018-09-27T02:57:02.864Z,7.31
2018-09-27T02:58:02.953Z,7.35
2018-09-27T02:59:03.043Z,7.31
2018-09-27T03:00:03.130Z,7.31
2018-09-27T03:01:03.220Z,7.23
2018-09-27T03:02:03.301Z,7.17
2018-09-27T03:03:03.394Z,7.19
2018-09-27T03:04:03.482Z,7.23
2018-09-27T03:05:03.574Z,7.23
2018-09-27T03:06:03.667Z,7.22
2018-09-27T03:07:03.744Z,7.35
2018-09-27T03:08:03.836Z,7.34
2018-09-27T03:09:03.940Z,7.27
2018-09-27T03:10:04.015Z,7.24
2018-09-27T03:11:04.102Z,7.23
2018-09-27T03:12:04.192Z,7.22
2018-09-27T03:13:04.285Z,7.20
2018-09-27T03:14:04.376Z,7.31
2018-09-27T03:15:04.466Z,7.32
2018-09-27T03:16:04.560Z,7.22
2018-09-27T03:17:04.642Z,7.31
2018-09-27T03:18:04.731Z,7.22
2018-09-27T03:19:04.819Z,7.23
2018-09-27T03:20:04.921Z,7.22
2018-09-27T03:21:05.123Z,7.23
2018-09-27T03:22:05.114Z,7.27
2018-09-27T03:23:05.203Z,7.19
2018-09-27T03:24:05.295Z,7.26
2018-09-27T03:25:05.386Z,7.22
2018-09-27T03:26:05.474Z,7.22
2018-09-27T03:27:05.564Z,7.22
2018-09-27T03:28:05.652Z,7.26
2018-09-27T03:29:05.743Z,7.27
2018-09-27T03:30:05.832Z,7.24
2018-09-27T03:31:05.929Z,7.16
2018-09-27T03:32:06.009Z,7.22
2018-09-27T03:33:06.106Z,7.22
2018-09-27T03:34:06.195Z,7.17
2018-09-27T03:35:06.283Z,7.23
2018-09-27T03:36:06.376Z,7.20
2018-09-27T03:37:06.474Z,7.13
2018-09-27T03:38:06.555Z,7.09
2018-09-27T03:39:06.648Z,6.94
2018-09-27T03:40:06.800Z,7.02
2018-09-27T03:41:06.824Z,7.15
2018-09-27T03:42:06.915Z,7.20
2018-09-27T03:43:07.010Z,7.16
2018-09-27T03:44:07.112Z,7.15
2018-09-27T03:45:07.203Z,7.19
2018-09-27T03:46:07.297Z,7.12
2018-09-27T03:47:07.388Z,7.12
2018-09-27T03:48:07.475Z,7.15
2018-09-27T03:49:07.563Z,7.09
2018-09-27T03:50:07.655Z,7.08
2018-09-27T03:51:07.748Z,7.15
2018-09-27T03:52:07.845Z,7.04
2018-09-27T03:53:07.934Z,7.15
2018-09-27T03:54:08.025Z,7.09
2018-09-27T03:55:08.114Z,7.13
2018-09-27T03:56:08.207Z,7.07
2018-09-27T03:57:08.299Z,7.15
2018-09-27T03:58:08.394Z,7.12
2018-09-27T03:59:08.483Z,7.05
2018-09-27T04:00:08.571Z,7.16
2018-09-27T04:01:08.657Z,7.13
2018-09-27T04:02:08.746Z,7.15
2018-09-27T04:03:08.845Z,7.15
2018-09-27T04:04:08.929Z,7.07
2018-09-27T04:05:09.006Z,7.17
2018-09-27T04:06:09.110Z,7.13
2018-09-27T04:07:09.200Z,7.16
2018-09-27T04:08:09.294Z,7.12
2018-09-27T04:09:09.381Z,7.07
2018-09-27T04:10:09.471Z,7.07
2018-09-27T04:11:09.561Z,7.15
2018-09-27T04:12:09.650Z,6.99
2018-09-27T04:13:09.741Z,7.01
2018-09-27T04:14:09.831Z,7.08
2018-09-27T04:15:09.921Z,7.05
2018-09-27T04:16:10.012Z,7.13
2018-09-27T04:17:10.102Z,7.16
2018-09-27T04:18:10.194Z,7.13
2018-09-27T04:19:10.283Z,7.04
2018-09-27T04:20:10.372Z,7.04
2018-09-27T04:21:10.468Z,7.09
2018-09-27T04:22:10.554Z,7.12
2018-09-27T04:23:10.645Z,7.02
2018-09-27T04:24:10.761Z,7.02
2018-09-27T04:25:10.828Z,7.04
2018-09-27T04:26:10.916Z,7.05
2018-09-27T04:27:11.010Z,7.02
2018-09-27T04:28:11.097Z,7.09
2018-09-27T04:29:11.188Z,6.99
2018-09-27T04:30:11.281Z,6.94
2018-09-27T04:31:11.372Z,7.05
2018-09-27T04:32:11.462Z,6.95
2018-09-27T04:33:11.553Z,6.97
2018-09-27T04:34:11.642Z,6.89
2018-09-27T04:35:11.737Z,6.99
2018-09-27T04:36:11.825Z,6.94
2018-09-27T04:37:11.914Z,6.91
2018-09-27T04:38:12.006Z,7.04
2018-09-27T04:39:12.092Z,7.05
2018-09-27T04:40:12.182Z,7.04
2018-09-27T04:41:12.273Z,7.04
2018-09-27T04:42:12.363Z,6.97
2018-09-27T04:43:12.446Z,6.90
2018-09-27T04:44:12.533Z,6.94
2018-09-27T04:45:12.625Z,6.90
2018-09-27T04:46:12.719Z,7.01
2018-09-27T04:47:12.803Z,6.99
2018-09-27T04:48:12.903Z,6.94
2018-09-27T04:49:12.985Z,6.98
2018-09-27T04:50:13.075Z,7.01
2018-09-27T04:51:13.163Z,7.05
2018-09-27T04:52:13.262Z,7.04
2018-09-27T04:53:13.354Z,6.90
2018-09-27T04:54:13.436Z,6.98
2018-09-27T04:55:13.533Z,6.91
2018-09-27T04:56:13.630Z,6.99
2018-09-27T04:57:13.712Z,6.95
2018-09-27T04:58:13.799Z,6.99
2018-09-27T04:59:13.898Z,6.98
2018-09-27T05:00:13.972Z,7.05
2018-09-27T05:01:14.068Z,7.02
2018-09-27T05:02:14.159Z,6.91
2018-09-27T05:03:14.249Z,6.97
2018-09-27T05:04:14.337Z,6.89
2018-09-27T05:05:14.429Z,6.95
2018-09-27T05:06:14.584Z,6.94
2018-09-27T05:07:14.608Z,6.89
2018-09-27T05:08:14.692Z,6.94
2018-09-27T05:09:14.780Z,6.87
2018-09-27T05:10:14.870Z,6.94
2018-09-27T05:11:14.962Z,6.97
2018-09-27T05:12:15.051Z,6.90
2018-09-27T05:13:15.142Z,7.01
2018-09-27T05:14:15.231Z,6.90
2018-09-27T05:15:15.326Z,6.94
2018-09-27T05:16:15.400Z,6.97
2018-09-27T05:17:15.500Z,7.02
2018-09-27T05:18:15.589Z,6.97
2018-09-27T05:19:15.676Z,6.94
2018-09-27T05:20:15.769Z,6.94
2018-09-27T05:21:15.858Z,6.72
2018-09-27T05:22:15.950Z,6.83
2018-09-27T05:23:16.041Z,6.80
2018-09-27T05:24:16.133Z,6.77
2018-09-27T05:25:16.246Z,6.81
2018-09-27T05:26:16.317Z,6.72
2018-09-27T05:27:16.453Z,6.83
2018-09-27T05:28:16.495Z,6.90
2018-09-27T05:29:16.588Z,6.91
2018-09-27T05:30:16.678Z,6.95
2018-09-27T05:31:16.766Z,6.89
2018-09-27T05:32:16.857Z,6.90
2018-09-27T05:33:16.945Z,6.89
2018-09-27T05:34:17.033Z,6.94
2018-09-27T05:35:17.123Z,6.89
2018-09-27T05:36:17.215Z,6.91
2018-09-27T05:37:17.310Z,6.90
2018-09-27T05:38:17.397Z,6.90
2018-09-27T05:39:17.491Z,6.95
2018-09-27T05:40:17.580Z,6.89
2018-09-27T05:41:17.672Z,6.95
2018-09-27T05:42:17.759Z,7.01
2018-09-27T05:43:17.850Z,7.01
2018-09-27T05:44:17.939Z,6.91
2018-09-27T05:45:18.040Z,6.98
2018-09-27T05:46:18.131Z,6.94
2018-09-27T05:47:18.223Z,6.94
2018-09-27T05:48:18.313Z,6.97
2018-09-27T05:49:18.408Z,6.89
2018-09-27T05:50:18.497Z,7.05
2018-09-27T05:51:18.585Z,7.01
2018-09-27T05:52:18.680Z,7.04
2018-09-27T05:53:18.769Z,7.05
2018-09-27T05:54:18.860Z,7.12
2018-09-27T05:55:18.946Z,7.05
2018-09-27T05:56:19.042Z,7.05
2018-09-27T05:57:19.129Z,7.04
2018-09-27T05:58:19.213Z,7.05
2018-09-27T05:59:19.298Z,7.15
2018-09-27T06:00:19.411Z,7.23
2018-09-27T06:01:27.140Z,7.17
2018-09-27T06:02:19.608Z,7.22
2018-09-27T06:03:19.698Z,7.20
2018-09-27T06:04:19.844Z,7.19
2018-09-27T06:05:19.875Z,7.17
2018-09-27T06:06:19.963Z,7.17
2018-09-27T06:07:20.050Z,7.19
2018-09-27T06:08:20.138Z,7.24
2018-09-27T06:09:20.231Z,7.23
2018-09-27T06:10:20.320Z,7.20
2018-09-27T06:11:20.435Z,7.26
2018-09-27T06:12:20.498Z,7.31
2018-09-27T06:13:20.590Z,7.22
2018-09-27T06:14:27.841Z,7.27
2018-09-27T06:15:20.811Z,7.50
2018-09-27T06:16:28.039Z,7.63
2018-09-27T06:17:28.155Z,7.81
2018-09-27T06:18:21.121Z,7.93
2018-09-27T06:19:21.217Z,8.00
2018-09-27T06:20:21.296Z,7.94
2018-09-27T06:21:21.381Z,8.03
2018-09-27T06:22:21.473Z,8.15
2018-09-27T06:23:21.565Z,8.04
2018-09-27T06:24:21.666Z,8.08
2018-09-27T06:25:21.740Z,8.15
2018-09-27T06:26:21.826Z,8.29
2018-09-27T06:27:21.921Z,8.36
2018-09-27T06:28:22.005Z,8.39
2018-09-27T06:29:22.093Z,8.45
2018-09-27T06:30:22.189Z,8.44
2018-09-27T06:31:22.275Z,8.45
2018-09-27T06:32:22.367Z,8.45
2018-09-27T06:33:22.493Z,8.63
2018-09-27T06:34:22.546Z,8.69
2018-09-27T06:35:22.634Z,8.73
2018-09-27T06:36:22.730Z,8.73
2018-09-27T06:37:22.819Z,8.72
2018-09-27T06:38:22.919Z,8.72
2018-09-27T06:39:22.995Z,8.69
2018-09-27T06:40:23.082Z,8.86
2018-09-27T06:41:23.222Z,8.81
2018-09-27T06:42:23.260Z,8.84
2018-09-27T06:43:23.351Z,8.87
2018-09-27T06:44:23.494Z,9.06
2018-09-27T06:45:23.540Z,9.20
2018-09-27T06:46:23.625Z,9.32
2018-09-27T06:47:23.714Z,9.39
2018-09-27T06:48:23.810Z,9.56
2018-09-27T06:49:23.896Z,9.67
2018-09-27T06:50:23.995Z,9.71
2018-09-27T06:51:24.095Z,9.85
2018-09-27T06:52:24.178Z,9.99
2018-09-27T06:53:24.268Z,10.04
2018-09-27T06:54:24.356Z,10.14
2018-09-27T06:55:24.696Z,10.22
2018-09-27T06:56:24.577Z,10.28
2018-09-27T06:57:24.647Z,10.32
2018-09-27T06:58:24.730Z,10.37
2018-09-27T06:59:24.814Z,10.47
2018-09-27T07:00:24.903Z,10.51
2018-09-27T07:01:24.995Z,10.43
2018-09-27T07:02:25.099Z,10.42
2018-09-27T07:03:25.184Z,10.34
2018-09-27T07:04:25.273Z,10.52
2018-09-27T07:05:25.362Z,10.58
2018-09-27T07:06:25.455Z,10.55
2018-09-27T07:07:25.548Z,10.56
2018-09-27T07:08:25.682Z,10.59
2018-09-27T07:09:25.733Z,10.58
2018-09-27T07:10:25.826Z,10.59
2018-09-27T07:11:25.915Z,10.52
2018-09-27T07:12:26.186Z,10.46
2018-09-27T07:13:26.097Z,10.59
2018-09-27T07:14:26.252Z,10.58
2018-09-27T07:15:26.298Z,10.53
2018-09-27T07:16:26.382Z,10.46
2018-09-27T07:17:26.465Z,10.58
2018-09-27T07:18:26.573Z,10.56
2018-09-27T07:19:26.660Z,10.56
2018-09-27T07:20:26.830Z,10.63
2018-09-27T07:21:26.844Z,10.66
2018-09-27T07:22:26.936Z,10.60
2018-09-27T07:23:27.039Z,10.52
2018-09-27T07:24:27.123Z,10.47
2018-09-27T07:25:27.221Z,10.56
2018-09-27T07:26:27.367Z,10.53
2018-09-27T07:27:27.408Z,10.59
2018-09-27T07:28:27.502Z,10.55
2018-09-27T07:29:27.596Z,10.73
2018-09-27T07:30:27.681Z,10.88
2018-09-27T07:31:27.770Z,10.83
2018-09-27T07:32:27.900Z,10.96
2018-09-27T07:33:27.966Z,11.02
2018-09-27T07:34:28.057Z,11.06
2018-09-27T07:35:28.145Z,11.09
2018-09-27T07:36:28.301Z,11.09
2018-09-27T07:37:28.357Z,11.24
2018-09-27T07:38:28.461Z,11.24
2018-09-27T07:39:28.557Z,11.27
2018-09-27T07:40:28.661Z,11.31
2018-09-27T07:41:28.712Z,11.31
2018-09-27T07:42:28.801Z,11.29
2018-09-27T07:43:28.901Z,11.34
2018-09-27T07:44:29.003Z,11.38
2018-09-27T07:45:29.072Z,11.47
2018-09-27T07:46:29.167Z,11.52
2018-09-27T07:47:29.258Z,11.46
2018-09-27T07:48:29.415Z,11.46
2018-09-27T07:49:29.450Z,11.52
2018-09-27T07:50:29.545Z,11.59
2018-09-27T07:51:29.628Z,11.64
2018-09-27T07:52:29.721Z,11.77
2018-09-27T07:53:29.814Z,11.75
2018-09-27T07:54:30.006Z,11.74
2018-09-27T07:55:30.001Z,11.77
2018-09-27T07:56:30.103Z,11.90
2018-09-27T07:57:30.183Z,11.99
2018-09-27T07:58:30.280Z,12.01
2018-09-27T07:59:30.371Z,12.04
2018-09-27T08:00:30.466Z,12.11
2018-09-27T08:01:30.558Z,12.12
2018-09-27T08:02:30.693Z,12.16
2018-09-27T08:03:30.740Z,12.16
2018-09-27T08:04:30.831Z,12.19
2018-09-27T08:05:30.922Z,12.41
2018-09-27T08:06:31.016Z,12.42
2018-09-27T08:07:31.108Z,12.44
2018-09-27T08:08:31.248Z,12.39
2018-09-27T08:09:31.312Z,12.49
2018-09-27T08:10:31.399Z,12.51
2018-09-27T08:11:31.512Z,12.57
2018-09-27T08:12:31.585Z,12.67
2018-09-27T08:13:31.678Z,12.69
2018-09-27T08:14:31.815Z,12.75
2018-09-27T08:15:31.863Z,12.82
2018-09-27T08:16:31.955Z,12.96
2018-09-27T08:17:32.049Z,12.92
2018-09-27T08:18:32.140Z,12.99
2018-09-27T08:19:32.234Z,12.96
2018-09-27T08:20:32.451Z,13.07
2018-09-27T08:21:32.431Z,13.07
2018-09-27T08:22:32.526Z,13.04
2018-09-27T08:23:32.616Z,13.18
2018-09-27T08:24:32.708Z,13.21
2018-09-27T08:25:32.802Z,13.27
2018-09-27T08:26:32.942Z,13.27
2018-09-27T08:27:32.990Z,13.38
2018-09-27T08:28:33.081Z,13.46
2018-09-27T08:29:33.172Z,13.43
2018-09-27T08:30:33.296Z,13.30
2018-09-27T08:31:33.361Z,13.40
2018-09-27T08:32:33.517Z,13.55
2018-09-27T08:33:33.553Z,13.51
2018-09-27T08:34:33.650Z,13.51
2018-09-27T08:35:33.737Z,13.59
2018-09-27T08:36:33.828Z,13.56
2018-09-27T08:37:33.923Z,13.65
2018-09-27T08:38:34.047Z,13.70
2018-09-27T08:39:34.111Z,13.79
2018-09-27T08:40:34.202Z,13.89
2018-09-27T08:41:34.292Z,13.95
2018-09-27T08:42:34.383Z,13.89
2018-09-27T08:43:34.476Z,13.98
2018-09-27T08:44:34.655Z,13.99
2018-09-27T08:45:34.799Z,14.10
2018-09-27T08:46:34.754Z,14.14
2018-09-27T08:47:34.848Z,14.29
2018-09-27T08:48:34.942Z,14.32
2018-09-27T08:49:35.035Z,14.43
2018-09-27T08:50:35.128Z,14.52
2018-09-27T08:51:35.284Z,14.52
2018-09-27T08:52:35.315Z,14.60
2018-09-27T08:53:35.410Z,14.61
2018-09-27T08:54:35.501Z,14.71
2018-09-27T08:55:35.654Z,14.81
2018-09-27T08:56:35.691Z,14.88
2018-09-27T08:57:35.831Z,14.99
2018-09-27T08:58:35.872Z,15.03
2018-09-27T08:59:35.966Z,15.06
2018-09-27T09:00:36.057Z,15.13
2018-09-27T09:01:36.168Z,15.17
2018-09-27T09:02:36.245Z,15.26
2018-09-27T09:03:36.380Z,15.28
2018-09-27T09:04:36.429Z,15.33
2018-09-27T09:05:36.526Z,15.41
2018-09-27T09:06:36.617Z,15.46
2018-09-27T09:07:36.772Z,15.51
2018-09-27T09:08:36.808Z,15.60
2018-09-27T09:09:36.923Z,15.66
2018-09-27T09:10:36.997Z,15.68
2018-09-27T09:11:37.093Z,15.70
2018-09-27T09:12:37.184Z,15.79
2018-09-27T09:13:37.314Z,15.79
2018-09-27T09:14:37.371Z,15.88
2018-09-27T09:15:37.503Z,15.94
2018-09-27T09:16:37.564Z,15.94
2018-09-27T09:17:38.377Z,16.04
2018-09-27T09:18:37.723Z,16.03
2018-09-27T09:19:37.891Z,16.20
2018-09-27T09:20:37.921Z,16.23
2018-09-27T09:21:38.030Z,16.25
2018-09-27T09:22:38.107Z,16.26
2018-09-27T09:23:38.203Z,16.34
2018-09-27T09:24:38.341Z,16.45
2018-09-27T09:25:38.434Z,16.48
2018-09-27T09:26:38.484Z,16.53
2018-09-27T09:27:38.602Z,16.48
2018-09-27T09:28:38.687Z,16.42
2018-09-27T09:29:38.842Z,16.44
2018-09-27T09:30:38.865Z,16.50
2018-09-27T09:31:38.961Z,16.60
2018-09-27T09:32:39.057Z,16.71
2018-09-27T09:33:39.214Z,16.80
2018-09-27T09:34:39.249Z,16.77
2018-09-27T09:35:39.351Z,16.83
2018-09-27T09:36:39.435Z,16.95
2018-09-27T09:37:39.536Z,16.92
2018-09-27T09:38:39.632Z,16.99
2018-09-27T09:39:39.727Z,17.13
2018-09-27T09:40:39.819Z,17.15
2018-09-27T09:41:39.921Z,17.18
2018-09-27T09:42:40.013Z,17.23
2018-09-27T09:43:40.113Z,17.30
2018-09-27T09:44:40.205Z,17.32
2018-09-27T09:45:40.299Z,17.41
2018-09-27T09:46:40.394Z,17.50
2018-09-27T09:47:40.492Z,17.50
2018-09-27T09:48:40.587Z,17.63
2018-09-27T09:49:40.683Z,17.69
2018-09-27T09:50:40.787Z,17.76
2018-09-27T09:51:40.885Z,17.94
2018-09-27T09:52:40.975Z,17.89
2018-09-27T09:53:41.073Z,17.81
2018-09-27T09:54:41.166Z,17.89
2018-09-27T09:55:41.263Z,18.00
2018-09-27T09:56:41.359Z,18.02
2018-09-27T09:57:41.453Z,18.06
2018-09-27T09:58:41.552Z,18.10
2018-09-27T09:59:41.648Z,18.10
2018-09-27T10:00:41.745Z,18.09
2018-09-27T10:01:41.839Z,18.10
2018-09-27T10:02:41.932Z,18.18
2018-09-27T10:03:42.024Z,18.29
2018-09-27T10:04:42.120Z,18.40
2018-09-27T10:05:42.218Z,18.54
2018-09-27T10:06:42.314Z,18.54
2018-09-27T10:07:42.408Z,18.64
2018-09-27T10:08:42.522Z,18.72
2018-09-27T10:09:42.601Z,18.76
2018-09-27T10:10:42.696Z,18.70
2018-09-27T10:11:42.792Z,18.82
2018-09-27T10:12:42.888Z,19.01
2018-09-27T10:13:42.985Z,18.80
2018-09-27T10:14:43.086Z,18.94
2018-09-27T10:15:43.179Z,18.94
2018-09-27T10:16:43.275Z,18.98
2018-09-27T10:17:43.373Z,19.10
2018-09-27T10:18:43.469Z,19.20
2018-09-27T10:19:43.557Z,19.17
2018-09-27T10:20:43.654Z,19.28
2018-09-27T10:21:43.771Z,19.33
2018-09-27T10:22:43.844Z,19.40
2018-09-27T10:23:43.939Z,19.48
2018-09-27T10:24:44.038Z,19.42
2018-09-27T10:25:44.137Z,19.38
2018-09-27T10:26:44.237Z,19.54
2018-09-27T10:27:44.331Z,19.58
2018-09-27T10:28:44.433Z,19.58
2018-09-27T10:29:44.523Z,19.63
2018-09-27T10:30:44.623Z,19.79
2018-09-27T10:31:44.722Z,19.84
2018-09-27T10:32:44.821Z,19.90
2018-09-27T10:33:44.914Z,19.84
2018-09-27T10:34:45.113Z,19.84
2018-09-27T10:35:45.110Z,19.97
2018-09-27T10:36:45.199Z,19.98
2018-09-27T10:37:45.301Z,19.98
2018-09-27T10:38:45.398Z,20.05
2018-09-27T10:39:45.487Z,20.09
2018-09-27T10:40:45.581Z,20.21
2018-09-27T10:41:45.681Z,20.25
2018-09-27T10:42:45.778Z,20.38
2018-09-27T10:43:45.875Z,20.43
2018-09-27T10:44:45.986Z,20.38
2018-09-27T10:45:46.074Z,20.49
2018-09-27T10:46:46.177Z,20.59
2018-09-27T10:47:46.268Z,20.71
2018-09-27T10:48:46.363Z,20.84
2018-09-27T10:49:46.463Z,20.79
2018-09-27T10:50:46.560Z,20.90
2018-09-27T10:51:46.657Z,20.72
2018-09-27T10:52:46.752Z,20.79
2018-09-27T10:53:46.847Z,20.90
2018-09-27T10:54:46.938Z,20.95
2018-09-27T10:55:47.039Z,20.99
2018-09-27T10:56:47.139Z,21.05
2018-09-27T10:57:47.237Z,20.91
2018-09-27T10:58:47.334Z,20.89
2018-09-27T10:59:47.479Z,20.95
2018-09-27T11:00:47.527Z,21.02
2018-09-27T11:01:47.613Z,21.05
2018-09-27T11:02:47.710Z,20.89
2018-09-27T11:03:47.809Z,21.05
2018-09-27T11:04:47.909Z,21.08
2018-09-27T11:05:48.011Z,21.17
2018-09-27T11:06:48.105Z,21.09
2018-09-27T11:07:48.204Z,21.17
2018-09-27T11:08:48.305Z,21.20
2018-09-27T11:09:48.397Z,21.32
2018-09-27T11:10:48.527Z,21.39
2018-09-27T11:11:55.730Z,21.48
2018-09-27T11:12:55.855Z,21.50
2018-09-27T11:13:48.832Z,21.48
2018-09-27T11:14:56.064Z,21.64
2018-09-27T11:15:49.054Z,21.61
2018-09-27T11:16:49.150Z,21.61
2018-09-27T11:17:57.897Z,21.66
2018-09-27T11:18:49.369Z,21.74
2018-09-27T11:19:49.463Z,21.67
2018-09-27T11:20:49.561Z,21.74
2018-09-27T11:21:49.663Z,21.81
2018-09-27T11:22:49.804Z,21.92
2018-09-27T11:23:49.855Z,21.88
2018-09-27T11:24:49.951Z,21.94
2018-09-27T11:25:50.047Z,21.91
2018-09-27T11:26:50.149Z,22.02
2018-09-27T11:27:50.244Z,22.01
2018-09-27T11:28:50.344Z,22.02
2018-09-27T11:29:50.442Z,22.16
2018-09-27T11:30:50.544Z,22.14
2018-09-27T11:31:50.642Z,22.16
2018-09-27T11:32:50.791Z,22.22
2018-09-27T11:33:50.856Z,22.29
2018-09-27T11:34:50.953Z,22.31
2018-09-27T11:35:51.051Z,22.29
2018-09-27T11:36:51.148Z,22.34
2018-09-27T11:37:51.239Z,22.28
2018-09-27T11:38:51.332Z,22.31
2018-09-27T11:39:51.431Z,22.37
2018-09-27T11:40:51.531Z,22.47
2018-09-27T11:41:51.629Z,22.31
2018-09-27T11:42:51.751Z,22.41
2018-09-27T11:43:51.863Z,22.50
2018-09-27T11:44:51.927Z,22.52
2018-09-27T11:45:52.027Z,22.56
2018-09-27T11:46:52.124Z,22.59
2018-09-27T11:47:52.211Z,22.62
2018-09-27T11:48:52.321Z,22.68
2018-09-27T11:49:52.482Z,22.72
2018-09-27T11:50:52.506Z,22.68
2018-09-27T11:51:52.606Z,22.77
2018-09-27T11:52:52.705Z,22.80
2018-09-27T11:53:52.803Z,22.77
2018-09-27T11:54:52.924Z,22.84
2018-09-27T11:55:53.060Z,22.86
2018-09-27T11:56:53.114Z,22.83
2018-09-27T11:57:53.186Z,22.87
2018-09-27T11:58:53.310Z,22.90
2018-09-27T11:59:53.386Z,22.82
2018-09-27T12:00:53.488Z,22.75
2018-09-27T12:01:53.586Z,22.78
2018-09-27T12:02:53.685Z,22.78
2018-09-27T12:03:53.783Z,22.74
2018-09-27T12:04:53.872Z,22.84
2018-09-27T12:05:53.992Z,22.93
2018-09-27T12:06:54.072Z,23.09
2018-09-27T12:07:54.175Z,23.02
2018-09-27T12:08:54.275Z,23.05
2018-09-27T12:09:54.374Z,23.15
2018-09-27T12:10:54.477Z,23.20
2018-09-27T12:11:54.582Z,23.08
2018-09-27T12:12:54.675Z,23.15
2018-09-27T12:13:54.772Z,23.34
2018-09-27T12:14:54.870Z,23.38
2018-09-27T12:15:54.970Z,23.34
2018-09-27T12:16:55.066Z,23.42
2018-09-27T12:17:55.164Z,23.46
2018-09-27T12:18:55.266Z,23.46
2018-09-27T12:19:55.428Z,23.60
2018-09-27T12:20:55.463Z,23.60
2018-09-27T12:21:55.560Z,23.49
2018-09-27T12:22:55.729Z,23.50
2018-09-27T12:23:55.761Z,23.50
2018-09-27T12:24:55.864Z,23.55
2018-09-27T12:25:55.958Z,23.47
2018-09-27T12:26:56.058Z,23.47
2018-09-27T12:27:56.167Z,23.62
2018-09-27T12:28:56.262Z,23.65
2018-09-27T12:29:56.360Z,23.46
2018-09-27T12:30:56.514Z,23.62
2018-09-27T12:31:56.559Z,23.64
2018-09-27T12:32:56.661Z,23.49
2018-09-27T12:33:56.800Z,23.53
2018-09-27T12:34:56.883Z,23.65
2018-09-27T12:35:56.983Z,23.70
2018-09-27T12:36:57.081Z,23.70
2018-09-27T12:37:57.192Z,23.72
2018-09-27T12:38:57.329Z,23.76
2018-09-27T12:39:57.422Z,23.76
2018-09-27T12:40:57.520Z,23.76
2018-09-27T12:41:57.735Z,23.76
2018-09-27T12:42:57.756Z,23.87
2018-09-27T12:43:57.814Z,23.85
2018-09-27T12:44:57.983Z,23.86
2018-09-27T12:45:58.094Z,23.95
2018-09-27T12:46:58.142Z,23.89
2018-09-27T12:47:58.268Z,24.08
2018-09-27T12:48:58.440Z,23.98
2018-09-27T12:49:58.412Z,23.86
2018-09-27T12:50:58.523Z,23.83
2018-09-27T12:51:58.846Z,23.98
2018-09-27T12:52:58.785Z,23.97
2018-09-27T12:53:58.817Z,24.01
2018-09-27T12:54:58.913Z,23.98
2018-09-27T12:55:59.072Z,24.02
2018-09-27T12:56:59.169Z,24.07
2018-09-27T12:57:59.219Z,24.10
2018-09-27T12:58:59.320Z,24.19
2018-09-27T12:59:59.730Z,24.17
2018-09-27T13:00:59.495Z,24.20
2018-09-27T13:01:59.809Z,24.22
2018-09-27T13:02:59.802Z,24.20
2018-09-27T13:03:59.783Z,24.23
2018-09-27T13:04:59.861Z,24.24
2018-09-27T13:05:59.960Z,24.14
2018-09-27T13:07:00.143Z,24.20